Time;durP1;ratioP1;P1;durP2;ratioP2;P2;SDS_P1;SDS_P2;PMS_P1;PMS_P2;Temp;Humidity;BMP_temperature;BMP_pressure;BME280_temperature;BME280_humidity;BME280_pressure;Samples;Min_cycle;Max_cycle;Signal;HPM_P1;HPM_P2
2022/07/06 00:01:54;;;;;;;4.68;1.13;;;15.20;99.90;;;;;;5075217;28;20507;-71
2022/07/06 00:04:21;;;;;;;4.07;1.15;;;15.30;99.90;;;;;;5058588;28;20040;-71
2022/07/06 00:06:46;;;;;;;4.38;0.77;;;15.30;99.90;;;;;;5075179;28;20082;-71
2022/07/06 00:09:12;;;;;;;6.05;0.90;;;15.30;99.90;;;;;;5058331;28;20040;-71
2022/07/06 00:11:38;;;;;;;4.07;1.00;;;15.30;99.90;;;;;;5058363;28;20047;-71
2022/07/06 00:14:04;;;;;;;4.85;0.98;;;15.30;99.90;;;;;;5075351;28;20032;-71
2022/07/06 00:16:30;;;;;;;4.82;0.98;;;15.30;99.90;;;;;;5074978;28;20040;-71
2022/07/06 00:18:56;;;;;;;5.40;1.10;;;15.30;99.90;;;;;;5074950;28;20028;-71
2022/07/06 00:21:21;;;;;;;6.85;0.98;;;15.30;99.90;;;;;;5075072;28;20125;-71
2022/07/06 00:23:47;;;;;;;5.80;1.40;;;15.30;99.90;;;;;;5058179;28;20079;-71
2022/07/06 00:26:13;;;;;;;4.93;1.13;;;15.30;99.90;;;;;;5074846;28;20177;-71
2022/07/06 00:28:38;;;;;;;4.13;0.93;;;15.20;99.90;;;;;;5074816;28;20054;-71
2022/07/06 00:31:05;;;;;;;3.63;1.10;;;15.20;99.90;;;;;;5058027;28;20045;-71
2022/07/06 00:33:31;;;;;;;3.30;0.90;;;15.20;99.90;;;;;;5074627;28;20051;-71
2022/07/06 00:35:57;;;;;;;5.68;1.15;;;15.20;99.90;;;;;;5074622;28;20123;-71
2022/07/06 00:38:22;;;;;;;6.03;1.30;;;15.20;99.90;;;;;;5058201;28;20120;-71
2022/07/06 00:40:48;;;;;;;5.00;1.10;;;15.20;99.90;;;;;;5074552;28;20045;-71
2022/07/06 00:43:14;;;;;;;4.80;1.20;;;15.20;99.90;;;;;;5074445;28;20036;-71
2022/07/06 00:45:39;;;;;;;5.03;1.17;;;15.20;99.90;;;;;;5074479;28;20048;-71
2022/07/06 00:48:05;;;;;;;4.50;1.00;;;15.20;99.90;;;;;;5057796;28;20068;-71
2022/07/06 00:50:33;;;;;;;5.03;1.05;;;15.20;99.90;;;;;;5074282;28;20055;-71
2022/07/06 00:53:04;;;;;;;6.78;1.40;;;15.20;99.90;;;;;;5074873;28;20090;-71
2022/07/06 00:55:34;;;;;;;5.10;1.38;;;15.20;99.90;;;;;;5073466;28;20041;-71
2022/07/06 00:58:02;;;;;;;4.65;0.90;;;15.10;99.90;;;;;;5074585;28;20048;-71
2022/07/06 01:00:29;;;;;;;5.45;1.10;;;15.10;99.90;;;;;;5074173;28;20080;-71
2022/07/06 01:02:55;;;;;;;3.38;0.77;;;15.10;99.90;;;;;;5074325;28;20040;-71
2022/07/06 01:05:21;;;;;;;5.88;1.10;;;15.10;99.90;;;;;;5074321;28;20097;-71
2022/07/06 01:07:50;;;;;;;3.50;0.75;;;15.10;99.90;;;;;;5074349;28;20044;-71
2022/07/06 01:10:17;;;;;;;6.15;1.10;;;15.10;99.90;;;;;;5057371;28;20386;-71
2022/07/06 01:12:44;;;;;;;9.85;1.00;;;15.00;99.90;;;;;;5057281;28;20082;-71
2022/07/06 01:15:12;;;;;;;4.57;0.95;;;15.10;99.90;;;;;;5073916;28;20041;-71
2022/07/06 01:17:42;;;;;;;4.55;1.00;;;15.00;99.90;;;;;;5057052;28;20041;-71
2022/07/06 01:20:11;;;;;;;6.40;1.13;;;15.10;99.90;;;;;;5073872;28;20509;-71
2022/07/06 01:22:37;;;;;;;5.35;1.48;;;15.00;99.90;;;;;;5073707;28;20041;-71
2022/07/06 01:25:04;;;;;;;4.82;1.17;;;15.00;99.90;;;;;;5073759;28;20036;-71
2022/07/06 01:27:30;;;;;;;5.28;1.40;;;15.00;99.90;;;;;;5057023;28;20070;-71
2022/07/06 01:29:56;;;;;;;3.13;1.00;;;15.00;99.90;;;;;;5073631;28;20040;-71
2022/07/06 01:32:21;;;;;;;4.00;0.98;;;15.00;99.90;;;;;;5073481;28;20048;-70
2022/07/06 01:34:47;;;;;;;5.00;1.00;;;15.00;99.90;;;;;;5073647;28;20067;-71
2022/07/06 01:37:13;;;;;;;3.92;1.00;;;14.90;99.90;;;;;;5073646;28;20037;-71
2022/07/06 01:39:38;;;;;;;4.53;1.10;;;14.90;99.90;;;;;;5073497;28;20127;-71
2022/07/06 01:42:04;;;;;;;5.93;1.58;;;14.90;99.90;;;;;;5073411;28;20037;-71
2022/07/06 01:44:30;;;;;;;3.50;1.10;;;14.90;99.90;;;;;;5073400;28;20055;-71
2022/07/06 01:46:55;;;;;;;5.45;1.48;;;14.90;99.90;;;;;;5073338;28;20040;-71
2022/07/06 01:49:21;;;;;;;5.20;1.58;;;14.90;99.90;;;;;;5073310;28;20085;-71
2022/07/06 01:51:47;;;;;;;5.22;1.30;;;14.90;99.90;;;;;;5073223;28;20040;-71
2022/07/06 01:54:12;;;;;;;7.00;1.17;;;14.90;99.90;;;;;;5073225;28;20493;-71
2022/07/06 01:56:38;;;;;;;3.85;1.25;;;14.90;99.90;;;;;;5073141;28;20036;-71
2022/07/06 01:59:03;;;;;;;5.57;1.30;;;14.90;99.90;;;;;;5056464;28;20044;-71
2022/07/06 02:01:29;;;;;;;6.30;1.13;;;14.90;99.90;;;;;;5073271;28;20047;-71
2022/07/06 02:03:54;;;;;;;4.38;1.10;;;14.90;99.90;;;;;;5072951;28;20546;-71
2022/07/06 02:06:20;;;;;;;5.53;1.40;;;14.90;99.90;;;;;;5073178;28;20123;-71
2022/07/06 02:08:45;;;;;;;3.20;1.13;;;14.80;99.90;;;;;;5072815;28;20492;-71
2022/07/06 02:11:11;;;;;;;4.10;1.10;;;14.80;99.90;;;;;;5073056;28;20040;-71
2022/07/06 02:13:37;;;;;;;3.95;1.10;;;14.90;99.90;;;;;;5056885;28;20465;-71
2022/07/06 02:16:04;;;;;;;6.10;1.17;;;14.80;99.90;;;;;;5073081;28;20079;-71
2022/07/06 02:18:30;;;;;;;3.70;1.13;;;14.80;99.90;;;;;;5072962;28;20040;-71
2022/07/06 02:20:56;;;;;;;5.25;1.10;;;14.90;99.90;;;;;;5072710;28;20041;-71
2022/07/06 02:23:22;;;;;;;5.03;1.23;;;14.80;99.90;;;;;;5072841;28;20041;-71
2022/07/06 02:25:47;;;;;;;6.15;1.30;;;14.80;99.90;;;;;;5072649;28;20074;-71
2022/07/06 02:28:13;;;;;;;5.28;1.00;;;14.80;99.90;;;;;;5072897;28;20037;-71
2022/07/06 02:30:38;;;;;;;5.68;1.15;;;14.80;99.90;;;;;;5072644;28;20390;-71
2022/07/06 02:33:04;;;;;;;5.15;1.15;;;14.90;99.90;;;;;;5072360;28;20044;-71
2022/07/06 02:35:30;;;;;;;7.30;1.00;;;14.90;99.90;;;;;;5072672;28;20039;-71
2022/07/06 02:37:55;;;;;;;7.38;1.10;;;14.90;99.90;;;;;;5072608;28;20515;-71
2022/07/06 02:40:21;;;;;;;6.55;1.30;;;14.80;99.90;;;;;;5072639;28;20045;-71
2022/07/06 02:42:46;;;;;;;4.85;0.98;;;14.90;99.90;;;;;;5072211;28;20048;-71
2022/07/06 02:45:12;;;;;;;6.63;1.02;;;14.90;99.90;;;;;;5072549;28;20028;-71
2022/07/06 02:47:38;;;;;;;5.75;1.23;;;14.90;99.90;;;;;;5072555;28;20518;-71
2022/07/06 02:50:04;;;;;;;7.82;1.15;;;14.90;99.90;;;;;;5072186;28;20508;-71
2022/07/06 02:52:30;;;;;;;7.00;1.80;;;14.90;99.90;;;;;;5072008;28;20425;-71
2022/07/06 02:54:56;;;;;;;5.82;1.83;;;14.90;99.90;;;;;;5072417;28;20041;-71
2022/07/06 02:57:21;;;;;;;4.50;1.42;;;14.90;99.90;;;;;;5072193;28;20404;-71
2022/07/06 02:59:49;;;;;;;5.45;1.23;;;14.90;99.90;;;;;;5055628;28;20041;-71
2022/07/06 03:02:17;;;;;;;4.20;0.98;;;14.80;99.90;;;;;;5071995;28;20044;-71
2022/07/06 03:04:43;;;;;;;7.70;1.27;;;14.90;99.90;;;;;;5072335;28;20044;-71
2022/07/06 03:07:09;;;;;;;5.65;1.00;;;14.80;99.90;;;;;;5071992;28;20548;-71
2022/07/06 03:09:34;;;;;;;5.53;1.10;;;14.80;99.90;;;;;;5071887;28;20097;-71
2022/07/06 03:12:00;;;;;;;4.40;1.00;;;14.80;99.90;;;;;;5071732;28;20041;-71
2022/07/06 03:14:26;;;;;;;5.97;1.17;;;14.90;99.90;;;;;;5071888;28;20028;-71
2022/07/06 03:16:52;;;;;;;3.63;0.90;;;14.90;99.90;;;;;;5071931;28;20185;-71
2022/07/06 03:19:18;;;;;;;4.45;0.93;;;14.90;99.90;;;;;;5054737;28;20037;-71
2022/07/06 03:21:44;;;;;;;5.10;0.93;;;14.90;99.90;;;;;;5055120;28;20040;-71
2022/07/06 03:24:09;;;;;;;4.20;1.20;;;14.90;99.90;;;;;;5072069;28;20072;-71
2022/07/06 03:26:35;;;;;;;3.72;0.88;;;14.90;99.90;;;;;;5071989;28;20131;-71
2022/07/06 03:29:00;;;;;;;4.18;0.90;;;14.90;99.90;;;;;;5071748;28;20127;-71
2022/07/06 03:31:26;;;;;;;5.85;1.52;;;14.90;99.90;;;;;;5071597;28;20044;-71
2022/07/06 03:33:52;;;;;;;7.13;1.30;;;14.90;99.90;;;;;;5071786;28;20029;-71
2022/07/06 03:36:18;;;;;;;6.40;1.10;;;14.90;99.90;;;;;;5071665;28;20090;-71
2022/07/06 03:38:43;;;;;;;4.78;0.98;;;14.90;99.90;;;;;;5054947;28;20409;-71
2022/07/06 03:41:09;;;;;;;6.57;0.98;;;14.90;99.90;;;;;;5055042;28;20047;-71
2022/07/06 03:43:35;;;;;;;4.55;1.10;;;14.90;99.90;;;;;;5071548;28;20182;-71
2022/07/06 03:46:01;;;;;;;4.18;1.02;;;15.00;99.90;;;;;;5071836;28;20127;-71
2022/07/06 03:48:26;;;;;;;5.43;0.95;;;14.90;99.90;;;;;;5071594;28;20044;-71
2022/07/06 03:50:52;;;;;;;6.78;1.10;;;15.00;99.90;;;;;;5071513;28;20076;-71
2022/07/06 03:53:18;;;;;;;6.60;1.33;;;15.00;99.90;;;;;;5071737;28;20044;-71
2022/07/06 03:56:27;;;;;;;9.18;1.38;;;15.00;99.90;;;;;;5071484;28;20040;-71
2022/07/06 03:58:29;;;;;;;4.45;1.08;;;15.00;99.90;;;;;;5071642;28;20041;-71
2022/07/06 04:00:55;;;;;;;6.30;0.98;;;15.00;99.90;;;;;;5055084;28;20040;-71
2022/07/06 04:03:20;;;;;;;10.10;1.90;;;15.00;99.90;;;;;;5071649;28;20488;-71
2022/07/06 04:05:46;;;;;;;4.85;1.10;;;15.00;99.90;;;;;;5071409;28;20515;-71
2022/07/06 04:08:11;;;;;;;3.38;0.75;;;15.10;99.90;;;;;;5071403;28;20040;-71
2022/07/06 04:10:37;;;;;;;6.97;1.40;;;15.10;99.90;;;;;;5071143;28;20044;-71
2022/07/06 04:13:02;;;;;;;6.82;1.20;;;15.10;99.90;;;;;;5071272;28;20043;-71
2022/07/06 04:15:28;;;;;;;6.80;1.00;;;15.10;99.90;;;;;;5071286;28;20045;-71
2022/07/06 04:17:54;;;;;;;7.07;1.10;;;15.10;99.90;;;;;;5071325;28;20086;-71
2022/07/06 04:20:21;;;;;;;7.28;1.33;;;15.20;99.90;;;;;;5054562;28;20037;-71
2022/07/06 04:22:47;;;;;;;4.72;0.90;;;15.20;99.90;;;;;;5071220;28;20079;-71
2022/07/06 04:25:13;;;;;;;4.63;0.90;;;15.20;99.90;;;;;;5071245;28;20040;-71
2022/07/06 04:27:38;;;;;;;3.35;0.93;;;15.20;99.90;;;;;;5071456;28;20055;-71
2022/07/06 04:30:05;;;;;;;5.75;1.13;;;15.30;99.90;;;;;;5072497;28;20039;-71
2022/07/06 04:32:31;;;;;;;5.50;1.00;;;15.20;99.90;;;;;;5074666;28;20040;-71
2022/07/06 04:34:57;;;;;;;5.43;1.25;;;15.20;99.90;;;;;;5075036;28;20041;-71
2022/07/06 04:37:22;;;;;;;5.53;1.10;;;15.30;99.90;;;;;;5058000;28;20131;-71
2022/07/06 04:39:48;;;;;;;6.43;0.80;;;15.30;99.90;;;;;;5074690;28;20040;-71
2022/07/06 04:42:13;;;;;;;5.47;0.90;;;15.20;99.90;;;;;;5074739;28;20166;-71
2022/07/06 04:44:39;;;;;;;5.43;1.00;;;15.30;99.90;;;;;;5074576;28;20048;-71
2022/07/06 04:47:05;;;;;;;6.90;1.13;;;15.20;99.90;;;;;;5074581;28;20039;-71
2022/07/06 04:49:30;;;;;;;6.22;1.30;;;15.20;99.90;;;;;;5074519;28;20064;-71
2022/07/06 04:51:56;;;;;;;4.25;0.90;;;15.20;99.90;;;;;;5074364;28;20048;-71
2022/07/06 04:54:22;;;;;;;4.18;0.80;;;15.20;99.90;;;;;;5074382;28;20060;-71
2022/07/06 04:56:48;;;;;;;6.90;1.05;;;15.20;99.90;;;;;;5074384;28;20106;-71
2022/07/06 04:59:14;;;;;;;6.60;1.00;;;15.20;99.90;;;;;;5074567;28;20078;-71
2022/07/06 05:01:40;;;;;;;5.32;0.60;;;15.20;99.90;;;;;;5057581;28;20517;-71
2022/07/06 05:04:06;;;;;;;5.57;1.00;;;15.20;99.90;;;;;;5074530;28;20048;-71
2022/07/06 05:06:32;;;;;;;6.75;1.20;;;15.20;99.90;;;;;;5057564;28;20049;-71
2022/07/06 05:08:59;;;;;;;3.97;1.00;;;15.30;99.90;;;;;;5074231;28;20047;-71
2022/07/06 05:11:25;;;;;;;7.10;1.15;;;15.30;99.90;;;;;;5074147;28;20084;-71
2022/07/06 05:13:51;;;;;;;6.07;0.95;;;15.30;99.90;;;;;;5074051;28;20045;-71
2022/07/06 05:16:16;;;;;;;4.80;1.00;;;15.30;99.90;;;;;;5074090;28;20038;-70
2022/07/06 05:18:42;;;;;;;4.82;0.82;;;15.30;99.90;;;;;;5073877;28;20033;-70
2022/07/06 05:21:07;;;;;;;8.70;0.80;;;15.30;99.90;;;;;;5073954;28;20055;-70
2022/07/06 05:23:33;;;;;;;4.15;0.82;;;15.30;99.90;;;;;;5074050;28;20119;-70
2022/07/06 05:25:59;;;;;;;4.70;1.02;;;15.30;99.90;;;;;;5073798;28;20515;-70
2022/07/06 05:28:24;;;;;;;4.35;0.70;;;15.20;99.90;;;;;;5073693;28;20098;-70
2022/07/06 05:30:50;;;;;;;4.13;0.70;;;15.20;99.90;;;;;;5075479;28;20132;-70
2022/07/06 05:33:16;;;;;;;4.03;0.85;;;15.30;99.90;;;;;;5073641;28;20520;-70
2022/07/06 05:35:41;;;;;;;8.27;1.08;;;15.30;99.90;;;;;;5073555;28;20036;-70
2022/07/06 05:38:07;;;;;;;5.00;1.00;;;15.40;99.90;;;;;;5056950;28;20044;-70
2022/07/06 05:40:33;;;;;;;6.80;0.82;;;15.40;99.90;;;;;;5056522;28;20037;-70
2022/07/06 05:42:59;;;;;;;6.32;0.82;;;15.40;99.90;;;;;;5073673;28;20099;-70
2022/07/06 05:45:24;;;;;;;4.50;0.85;;;15.50;99.90;;;;;;5073407;28;20433;-70
2022/07/06 05:50:34;;;;;;;4.53;0.70;;;15.50;99.90;;;;;;5073329;28;20123;-70
2022/07/06 05:53:02;;;;;;;4.38;0.93;;;15.60;99.90;;;;;;5073263;28;20115;-70
2022/07/06 05:55:28;;;;;;;8.10;0.90;;;15.60;99.90;;;;;;5073206;28;20040;-70
2022/07/06 05:57:54;;;;;;;7.55;1.00;;;15.70;99.90;;;;;;5073228;28;20043;-70
2022/07/06 06:00:21;;;;;;;4.63;0.80;;;15.80;99.90;;;;;;5073430;28;20162;-70
2022/07/06 06:02:46;;;;;;;4.97;1.00;;;15.80;99.90;;;;;;5073104;28;20524;-70
2022/07/06 06:05:13;;;;;;;7.32;0.90;;;15.90;99.90;;;;;;5073311;28;20123;-69
2022/07/06 06:07:40;;;;;;;8.88;0.93;;;15.90;99.90;;;;;;5073050;28;20123;-69
2022/07/06 06:10:11;;;;;;;9.43;0.95;;;16.00;99.90;;;;;;5056253;28;20047;-69
2022/07/06 06:12:37;;;;;;;3.95;0.77;;;16.00;99.90;;;;;;5072816;28;20154;-69
2022/07/06 06:15:03;;;;;;;4.47;0.70;;;16.10;99.90;;;;;;5056418;28;20124;-70
2022/07/06 06:17:29;;;;;;;6.90;0.80;;;16.10;99.90;;;;;;5072747;28;20044;-70
2022/07/06 06:19:54;;;;;;;8.00;0.75;;;16.10;99.90;;;;;;5056503;28;20093;-70
2022/07/06 06:22:20;;;;;;;7.85;0.70;;;16.20;99.90;;;;;;5056006;28;20515;-70
2022/07/06 06:24:46;;;;;;;8.68;0.93;;;16.20;99.90;;;;;;5072658;28;20055;-70
2022/07/06 06:27:11;;;;;;;5.15;0.65;;;16.20;99.90;;;;;;5072895;28;20040;-70
2022/07/06 06:29:37;;;;;;;8.95;0.82;;;16.20;99.90;;;;;;5055955;28;20547;-70
2022/07/06 06:32:05;;;;;;;4.63;0.70;;;16.20;99.90;;;;;;5072394;28;20054;-70
2022/07/06 06:34:31;;;;;;;7.18;0.70;;;16.10;99.90;;;;;;5072703;28;20059;-70
2022/07/06 06:36:56;;;;;;;6.05;0.70;;;16.20;99.90;;;;;;5072492;28;20115;-70
2022/07/06 06:39:22;;;;;;;4.93;0.68;;;16.20;99.90;;;;;;5072399;28;20115;-70
2022/07/06 06:41:47;;;;;;;5.15;0.60;;;16.20;99.90;;;;;;5072297;28;20036;-70
2022/07/06 06:44:14;;;;;;;5.18;0.75;;;16.20;99.90;;;;;;5072307;28;20055;-70
2022/07/06 06:46:40;;;;;;;5.20;0.90;;;16.20;99.90;;;;;;5055701;28;20052;-70
2022/07/06 06:49:06;;;;;;;5.38;0.85;;;16.30;99.90;;;;;;5072213;28;20036;-70
2022/07/06 06:51:32;;;;;;;4.68;0.50;;;16.30;99.90;;;;;;5071997;28;20053;-69
2022/07/06 06:53:58;;;;;;;4.85;0.50;;;16.40;99.90;;;;;;5071508;28;20037;-70
2022/07/06 06:56:24;;;;;;;4.57;0.68;;;16.50;99.90;;;;;;5072433;28;20040;-69
2022/07/06 06:58:49;;;;;;;6.57;0.70;;;16.50;99.90;;;;;;5072114;28;20480;-69
2022/07/06 07:01:15;;;;;;;3.30;0.65;;;16.40;99.90;;;;;;5072082;28;20040;-69
2022/07/06 07:03:40;;;;;;;5.28;0.80;;;16.40;99.90;;;;;;5072289;28;20040;-69
2022/07/06 07:06:06;;;;;;;3.70;0.60;;;16.30;99.90;;;;;;5072052;28;20417;-69
2022/07/06 07:08:32;;;;;;;6.68;0.60;;;16.20;99.90;;;;;;5071986;28;20130;-69
2022/07/06 07:10:58;;;;;;;8.77;0.77;;;16.20;99.90;;;;;;5055225;28;20041;-69
2022/07/06 07:13:24;;;;;;;4.93;0.80;;;16.20;99.90;;;;;;5072165;28;20044;-70
2022/07/06 07:15:50;;;;;;;3.42;0.60;;;16.30;99.90;;;;;;5071915;28;20485;-70
2022/07/06 07:18:15;;;;;;;5.72;0.70;;;16.40;99.90;;;;;;5072402;28;20043;-70
2022/07/06 07:20:41;;;;;;;4.93;0.77;;;16.60;99.90;;;;;;5072158;28;20051;-70
2022/07/06 07:23:07;;;;;;;5.38;0.80;;;16.60;99.90;;;;;;5071929;28;20123;-70
2022/07/06 07:25:32;;;;;;;4.45;0.73;;;16.80;99.90;;;;;;5071842;28;20044;-70
2022/07/06 07:27:58;;;;;;;6.40;0.60;;;17.00;99.90;;;;;;5071799;28;20044;-70
2022/07/06 07:30:23;;;;;;;2.97;0.73;;;17.20;99.90;;;;;;5071614;28;20131;-70
2022/07/06 07:32:49;;;;;;;6.15;0.63;;;17.30;99.90;;;;;;5071670;28;20037;-70
2022/07/06 07:35:15;;;;;;;4.35;0.52;;;17.40;99.90;;;;;;5071754;28;20051;-71
2022/07/06 07:37:40;;;;;;;5.03;0.57;;;17.40;99.90;;;;;;5071789;28;20119;-71
2022/07/06 07:40:06;;;;;;;8.50;0.80;;;17.50;99.90;;;;;;5055058;28;20119;-71
2022/07/06 07:42:32;;;;;;;3.15;0.55;;;17.60;99.90;;;;;;5071734;28;20052;-71
2022/07/06 07:44:58;;;;;;;6.43;0.70;;;17.70;99.90;;;;;;5071883;28;20049;-71
2022/07/06 07:47:24;;;;;;;1.98;0.60;;;17.80;99.90;;;;;;5071828;28;20037;-71
2022/07/06 07:49:49;;;;;;;7.60;0.68;;;17.80;99.90;;;;;;5071596;28;20564;-71
2022/07/06 07:52:15;;;;;;;5.75;0.60;;;17.70;99.90;;;;;;5071323;28;20083;-71
2022/07/06 07:54:41;;;;;;;2.88;0.73;;;17.70;99.90;;;;;;5071465;28;20072;-71
2022/07/06 07:57:06;;;;;;;6.88;0.60;;;17.80;99.90;;;;;;5071468;28;20048;-71
2022/07/06 07:59:32;;;;;;;2.72;0.50;;;17.90;99.90;;;;;;5071752;28;20043;-71
2022/07/06 08:01:58;;;;;;;2.47;0.50;;;18.00;99.90;;;;;;5071666;28;20485;-71
2022/07/06 08:04:23;;;;;;;5.63;0.70;;;18.20;99.90;;;;;;5073129;28;20472;-71
2022/07/06 08:06:49;;;;;;;4.10;0.60;;;18.30;99.90;;;;;;5075394;28;20048;-71
2022/07/06 08:09:16;;;;;;;5.65;0.43;;;18.40;99.90;;;;;;5076639;28;20079;-71
2022/07/06 08:11:42;;;;;;;6.95;0.80;;;18.40;99.90;;;;;;5075052;28;20076;-71
2022/07/06 08:14:08;;;;;;;4.72;0.47;;;18.30;99.90;;;;;;5076242;28;20068;-71
2022/07/06 08:16:34;;;;;;;2.70;0.40;;;18.30;99.90;;;;;;5075511;28;20055;-71
2022/07/06 08:18:59;;;;;;;6.93;0.80;;;18.30;99.90;;;;;;5058479;28;20477;-71
2022/07/06 08:21:26;;;;;;;6.15;0.65;;;18.30;99.90;;;;;;5074939;28;20085;-71
2022/07/06 08:23:52;;;;;;;6.00;0.80;;;18.30;99.90;;;;;;5075106;28;20451;-72
2022/07/06 08:26:18;;;;;;;6.38;0.93;;;18.30;99.90;;;;;;5075090;28;20041;-72
2022/07/06 08:28:44;;;;;;;4.75;0.50;;;18.30;99.90;;;;;;5075199;28;20037;-72
2022/07/06 08:31:10;;;;;;;3.90;0.60;;;18.50;99.90;;;;;;5075049;28;20097;-72
2022/07/06 08:33:35;;;;;;;4.22;0.73;;;18.50;99.90;;;;;;5058341;28;20106;-71
2022/07/06 08:36:02;;;;;;;3.33;0.70;;;18.50;99.90;;;;;;5058082;28;20048;-71
2022/07/06 08:38:27;;;;;;;7.15;1.02;;;18.50;99.90;;;;;;5074688;28;20048;-71
2022/07/06 08:40:54;;;;;;;5.85;0.77;;;18.60;99.90;;;;;;5075004;28;20048;-71
2022/07/06 08:43:20;;;;;;;4.43;0.60;;;18.70;99.90;;;;;;5057927;28;20139;-72
2022/07/06 08:45:49;;;;;;;6.38;0.60;;;18.80;99.90;;;;;;5074580;28;20039;-71
2022/07/06 08:48:15;;;;;;;3.38;0.50;;;18.80;99.90;;;;;;5074731;28;20048;-71
2022/07/06 08:50:41;;;;;;;3.72;0.50;;;18.90;99.90;;;;;;5057946;28;20420;-71
2022/07/06 08:53:07;;;;;;;4.03;0.50;;;18.90;99.90;;;;;;5074738;28;20509;-72
2022/07/06 08:55:32;;;;;;;2.45;0.43;;;18.80;99.90;;;;;;5074677;28;20484;-72
2022/07/06 08:57:58;;;;;;;6.03;0.60;;;18.90;99.90;;;;;;5057685;28;20476;-72
2022/07/06 09:00:24;;;;;;;7.32;0.50;;;19.10;99.90;;;;;;5074647;28;20071;-72
2022/07/06 09:02:53;;;;;;;3.25;0.57;;;19.20;99.90;;;;;;5074518;28;20075;-72
2022/07/06 09:05:21;;;;;;;4.88;0.30;;;19.30;99.90;;;;;;5074303;28;20044;-72
2022/07/06 09:07:50;;;;;;;5.72;0.50;;;19.60;99.90;;;;;;5074292;28;20119;-72
2022/07/06 09:10:18;;;;;;;2.85;0.40;;;19.80;99.90;;;;;;5074357;28;20133;-72
2022/07/06 09:12:43;;;;;;;2.58;0.70;;;20.00;99.90;;;;;;5075307;28;20037;-72
2022/07/06 09:15:09;;;;;;;4.28;0.40;;;20.20;99.90;;;;;;5073958;28;20047;-71
2022/07/06 09:17:39;;;;;;;4.97;0.50;;;20.50;99.00;;;;;;5073684;28;20400;-71
2022/07/06 09:20:08;;;;;;;4.25;0.38;;;20.50;94.00;;;;;;5073941;28;20512;-71
2022/07/06 09:22:34;;;;;;;2.80;0.40;;;20.50;86.00;;;;;;5074092;28;20120;-72
2022/07/06 09:25:05;;;;;;;1.20;0.20;;;20.30;90.50;;;;;;5073885;28;20079;-71
2022/07/06 09:27:31;;;;;;;1.30;0.35;;;20.20;86.20;;;;;;5057315;28;20440;-71
2022/07/06 09:30:03;;;;;;;2.20;0.32;;;20.30;88.20;;;;;;5057189;28;20583;-72
2022/07/06 09:32:29;;;;;;;4.15;0.30;;;20.60;83.20;;;;;;5073575;28;20417;-72
2022/07/06 09:34:55;;;;;;;3.97;0.50;;;20.80;91.60;;;;;;5073879;28;20040;-72
2022/07/06 09:37:23;;;;;;;5.65;0.40;;;20.90;90.90;;;;;;5073618;28;20045;-72
2022/07/06 09:39:49;;;;;;;4.03;0.50;;;20.90;92.40;;;;;;5073588;28;20111;-72
2022/07/06 09:42:14;;;;;;;3.97;0.40;;;20.80;91.20;;;;;;5073770;28;20036;-72
2022/07/06 09:44:41;;;;;;;3.22;0.63;;;20.70;91.00;;;;;;5057065;28;20059;-71
2022/07/06 09:47:09;;;;;;;1.92;0.57;;;20.60;92.00;;;;;;5073723;28;20094;-72
2022/07/06 09:49:36;;;;;;;3.03;0.80;;;20.90;94.50;;;;;;5073310;28;20032;-72
2022/07/06 09:52:04;;;;;;;3.00;0.73;;;21.00;90.60;;;;;;5073099;28;20086;-72
2022/07/06 09:54:29;;;;;;;3.55;0.40;;;21.20;90.70;;;;;;5073199;28;20488;-72
2022/07/06 09:56:56;;;;;;;2.83;0.60;;;21.50;87.80;;;;;;5073397;28;20089;-72
2022/07/06 09:59:30;;;;;;;2.92;0.47;;;21.40;88.90;;;;;;5073088;28;20597;-72
2022/07/06 10:02:00;;;;;;;1.98;0.40;;;21.30;84.50;;;;;;5073113;28;20041;-72
2022/07/06 10:04:27;;;;;;;2.92;0.32;;;21.00;80.90;;;;;;5056483;28;20044;-72
2022/07/06 10:06:54;;;;;;;2.08;0.30;;;20.90;83.40;;;;;;5073017;28;20123;-72
2022/07/06 10:09:22;;;;;;;2.92;0.50;;;20.80;83.00;;;;;;5056395;28;20040;-72
2022/07/06 10:11:51;;;;;;;4.15;0.35;;;20.70;81.90;;;;;;5072754;28;20038;-72
2022/07/06 10:14:25;;;;;;;1.83;0.30;;;20.60;81.20;;;;;;5072855;28;20493;-72
2022/07/06 10:16:51;;;;;;;4.65;0.50;;;20.40;82.10;;;;;;5072896;28;20037;-72
2022/07/06 10:19:18;;;;;;;2.70;0.30;;;20.30;85.60;;;;;;5072793;28;20040;-72
2022/07/06 10:21:45;;;;;;;3.25;0.50;;;20.40;88.70;;;;;;5073229;28;20424;-71
2022/07/06 10:24:12;;;;;;;2.63;0.60;;;20.60;90.00;;;;;;5072931;28;20131;-72
2022/07/06 10:26:38;;;;;;;1.80;0.32;;;20.90;85.90;;;;;;5073571;28;20088;-72
2022/07/06 10:29:06;;;;;;;2.13;0.28;;;20.90;80.40;;;;;;5055432;28;20036;-72
2022/07/06 10:31:34;;;;;;;3.42;0.40;;;20.90;83.10;;;;;;5072576;28;20049;-72
2022/07/06 10:34:01;;;;;;;4.03;0.40;;;20.90;83.90;;;;;;5072408;28;20036;-72
2022/07/06 10:36:28;;;;;;;6.82;0.55;;;20.90;86.30;;;;;;5072438;28;20124;-72
2022/07/06 10:38:54;;;;;;;6.53;0.60;;;20.80;87.20;;;;;;5072404;28;20515;-71
2022/07/06 10:41:32;;;;;;;2.28;0.40;;;20.70;88.70;;;;;;5072325;28;20036;-71
2022/07/06 10:43:58;;;;;;;5.03;0.45;;;20.60;91.60;;;;;;5072648;28;20041;-71
2022/07/06 10:46:28;;;;;;;2.78;0.47;;;20.80;94.40;;;;;;5072264;28;20485;-71
2022/07/06 10:48:54;;;;;;;2.67;0.40;;;21.10;93.90;;;;;;5072441;28;20037;-71
2022/07/06 10:51:28;;;;;;;2.58;0.50;;;21.50;90.90;;;;;;5071990;28;20048;-71
2022/07/06 10:54:04;;;;;;;2.50;0.38;;;21.80;86.30;;;;;;5072216;28;20094;-71
2022/07/06 10:56:38;;;;;;;5.43;0.45;;;22.10;84.00;;;;;;5072587;28;20060;-72
2022/07/06 10:59:19;;;;;;;3.17;0.50;;;22.40;83.60;;;;;;5072147;28;20044;-71
2022/07/06 11:02:14;;;;;;;3.53;0.45;;;22.60;80.60;;;;;;5072041;28;20051;-71
2022/07/06 11:04:44;;;;;;;2.83;0.40;;;22.60;74.20;;;;;;5072119;28;20041;-71
2022/07/06 11:07:12;;;;;;;5.55;0.70;;;22.30;76.80;;;;;;5072397;28;20374;-72
2022/07/06 11:09:38;;;;;;;4.00;0.60;;;22.10;76.20;;;;;;5071868;28;20499;-72
2022/07/06 11:12:20;;;;;;;5.10;0.50;;;22.00;76.90;;;;;;5055161;28;20131;-72
2022/07/06 11:14:48;;;;;;;4.43;0.70;;;21.90;82.50;;;;;;5055271;28;20036;-71
2022/07/06 11:17:17;;;;;;;3.67;0.50;;;21.90;80.60;;;;;;5071955;28;20033;-72
2022/07/06 11:20:09;;;;;;;2.80;0.52;;;21.90;79.00;;;;;;5071874;28;20043;-71
2022/07/06 11:22:37;;;;;;;3.30;0.45;;;21.90;73.60;;;;;;5071996;28;20405;-71
2022/07/06 11:25:04;;;;;;;2.22;0.55;;;21.70;74.70;;;;;;5072056;28;20044;-71
2022/07/06 11:27:30;;;;;;;3.22;0.43;;;21.60;76.40;;;;;;5071764;28;20051;-71
2022/07/06 11:29:55;;;;;;;4.72;0.88;;;21.50;76.40;;;;;;5055125;28;20041;-71
2022/07/06 11:32:28;;;;;;;4.05;0.70;;;21.40;74.60;;;;;;5071827;28;20044;-71
2022/07/06 11:34:54;;;;;;;5.38;0.60;;;21.50;77.20;;;;;;5072001;28;20044;-71
2022/07/06 11:37:20;;;;;;;2.72;0.60;;;21.50;80.60;;;;;;5054992;28;20090;-72
2022/07/06 11:39:47;;;;;;;3.85;0.50;;;21.80;80.60;;;;;;5073952;28;20036;-73
2022/07/06 11:42:15;;;;;;;2.00;0.40;;;21.80;82.60;;;;;;5075948;28;20450;-73
2022/07/06 11:44:41;;;;;;;4.43;0.50;;;21.70;81.50;;;;;;5059187;28;20077;-73
2022/07/06 11:47:09;;;;;;;3.88;0.70;;;21.60;75.90;;;;;;5075918;28;20113;-73
2022/07/06 11:49:36;;;;;;;4.63;0.50;;;21.50;78.90;;;;;;5075838;28;20045;-73
2022/07/06 11:52:13;;;;;;;2.88;0.45;;;21.80;79.10;;;;;;5075418;28;20043;-74
2022/07/06 11:54:40;;;;;;;3.65;0.43;;;22.20;82.60;;;;;;5075636;28;20052;-73
2022/07/06 11:57:09;;;;;;;4.53;0.70;;;22.50;73.50;;;;;;5075510;28;20486;-74
2022/07/06 11:59:37;;;;;;;2.15;0.55;;;22.90;73.00;;;;;;5058799;28;20518;-74
2022/07/06 12:02:05;;;;;;;4.63;0.47;;;23.00;75.40;;;;;;5075337;28;20129;-72
2022/07/06 12:04:33;;;;;;;3.85;0.50;;;23.20;73.00;;;;;;5058696;28;20076;-73
2022/07/06 12:07:14;;;;;;;4.22;0.55;;;23.20;71.70;;;;;;5075567;28;20036;-74
2022/07/06 12:09:41;;;;;;;3.05;0.55;;;23.30;65.80;;;;;;5075481;28;20044;-74
2022/07/06 12:12:09;;;;;;;4.30;0.73;;;23.40;64.80;;;;;;5075168;28;20032;-73
2022/07/06 12:14:37;;;;;;;4.25;0.50;;;23.60;64.80;;;;;;5075186;28;20512;-74
2022/07/06 12:17:20;;;;;;;5.47;1.05;;;23.80;65.60;;;;;;5075171;28;20041;-74
2022/07/06 12:19:54;;;;;;;3.30;0.45;;;23.70;61.70;;;;;;5058492;28;20072;-74
2022/07/06 12:22:24;;;;;;;2.25;0.43;;;23.50;60.80;;;;;;5075091;28;20091;-74
2022/07/06 12:24:50;;;;;;;2.55;0.40;;;23.20;61.70;;;;;;5058453;28;20048;-74
2022/07/06 12:27:18;;;;;;;4.15;0.40;;;22.80;63.40;;;;;;5074949;28;20036;-73
2022/07/06 12:29:45;;;;;;;3.60;0.50;;;22.70;64.50;;;;;;5075142;28;20527;-73
2022/07/06 12:32:18;;;;;;;4.80;0.93;;;22.40;65.60;;;;;;5074772;28;20048;-73
2022/07/06 12:34:44;;;;;;;4.38;0.50;;;22.20;64.50;;;;;;5075116;28;20508;-73
2022/07/06 12:37:11;;;;;;;3.22;0.30;;;22.10;65.30;;;;;;5074781;28;20079;-73
2022/07/06 12:39:43;;;;;;;4.93;0.60;;;22.00;65.20;;;;;;5074731;28;20037;-73
2022/07/06 12:42:08;;;;;;;4.03;0.85;;;22.00;65.00;;;;;;5074909;28;20036;-73
2022/07/06 12:44:45;;;;;;;2.42;0.47;;;22.00;64.70;;;;;;5058140;28;20497;-73
2022/07/06 12:47:12;;;;;;;3.78;0.47;;;22.10;64.30;;;;;;5074658;28;20094;-73
2022/07/06 12:49:38;;;;;;;2.60;0.40;;;22.20;65.50;;;;;;5074759;28;20047;-73